Time,TemperatureF,DewpointF,PressureIn,WindDirection,WindDirectionDegrees,WindSpeedMPH,WindSpeedGustMPH,Humidity,HourlyPrecipIn,Conditions,Clouds,dailyrainin,SoftwareType,DateUTC
2013-05-05 00:04:00,48.6,48.1,29.75,NW,315,10.9,-999.0,98,-99.99,,,0.02,Acu-Link.com,2013-05-05 04:04:00,
2013-05-05 00:20:00,48.6,48.1,29.75,South,180,4.7,-999.0,98,-99.99,,,0.02,Acu-Link.com,2013-05-05 04:20:00,
2013-05-05 00:35:00,48.7,48.2,29.76,NW,315,6.8,-999.0,98,-99.99,,,0.02,Acu-Link.com,2013-05-05 04:35:00,
2013-05-05 00:50:00,48.6,48.1,29.76,North,0,2.7,-999.0,98,-99.99,,,0.03,Acu-Link.com,2013-05-05 04:50:00,
2013-05-05 01:05:00,48.6,48.1,29.75,WNW,292,4.2,-999.0,98,-99.99,,,0.09,Acu-Link.com,2013-05-05 05:05:00,
2013-05-05 01:20:00,48.7,48.2,29.75,SSW,202,2.7,-999.0,98,-99.99,,,0.13,Acu-Link.com,2013-05-05 05:20:00,
2013-05-05 01:36:00,48.6,48.1,29.73,WNW,292,4.2,-999.0,98,-99.99,,,0.16,Acu-Link.com,2013-05-05 05:36:00,
2013-05-05 01:51:00,48.9,48.4,29.72,East,90,5.3,-999.0,98,-99.99,,,0.20,Acu-Link.com,2013-05-05 05:51:00,
2013-05-05 02:06:00,48.9,48.4,29.71,NNE,22,2.7,-999.0,98,-99.99,,,0.21,Acu-Link.com,2013-05-05 06:06:00,
2013-05-05 02:21:00,48.9,48.4,29.71,NE,45,5.3,-999.0,98,-99.99,,,0.24,Acu-Link.com,2013-05-05 06:21:00,
2013-05-05 02:37:00,48.7,48.2,29.69,ENE,67,5.8,-999.0,98,-99.99,,,0.29,Acu-Link.com,2013-05-05 06:37:00,
2013-05-05 02:52:00,48.9,48.4,29.69,NNW,337,5.3,-999.0,98,-99.99,,,0.31,Acu-Link.com,2013-05-05 06:52:00,
2013-05-05 03:07:00,48.9,48.4,29.68,NNE,22,7.3,-999.0,98,-99.99,,,0.33,Acu-Link.com,2013-05-05 07:07:00,
2013-05-05 03:22:00,48.9,48.4,29.68,South,180,5.3,-999.0,98,-99.99,,,0.41,Acu-Link.com,2013-05-05 07:22:00,
2013-05-05 03:38:00,48.7,48.2,29.68,South,180,3.7,-999.0,98,-99.99,,,0.47,Acu-Link.com,2013-05-05 07:38:00,
2013-05-05 03:53:00,48.7,48.2,29.69,NE,45,2.7,-999.0,98,-99.99,,,0.57,Acu-Link.com,2013-05-05 07:53:00,
2013-05-05 04:08:00,48.6,48.1,29.68,NW,315,5.8,-999.0,98,-99.99,,,0.61,Acu-Link.com,2013-05-05 08:08:00,
2013-05-05 04:23:00,48.6,48.1,29.68,NW,315,2.2,-999.0,98,-99.99,,,0.66,Acu-Link.com,2013-05-05 08:23:00,
2013-05-05 04:39:00,48.6,48.1,29.69,NE,45,3.2,-999.0,98,-99.99,,,0.71,Acu-Link.com,2013-05-05 08:39:00,
2013-05-05 04:54:00,48.4,47.9,29.69,NE,45,3.2,-999.0,98,-99.99,,,0.77,Acu-Link.com,2013-05-05 08:54:00,
2013-05-05 05:09:00,48.0,47.5,29.65,SW,225,5.3,-999.0,98,-99.99,,,0.83,Acu-Link.com,2013-05-05 09:09:00,
2013-05-05 05:24:00,48.0,47.5,29.65,NNE,22,6.8,-999.0,98,-99.99,,,0.89,Acu-Link.com,2013-05-05 09:24:00,
2013-05-05 05:39:00,47.8,47.3,29.65,South,180,4.2,-999.0,98,-99.99,,,0.89,Acu-Link.com,2013-05-05 09:39:00,
2013-05-05 05:54:00,47.8,47.3,29.65,South,180,3.7,-999.0,98,-99.99,,,0.89,Acu-Link.com,2013-05-05 09:54:00,
2013-05-05 06:09:00,47.3,46.8,29.65,North,0,4.7,-999.0,98,-99.99,,,0.91,Acu-Link.com,2013-05-05 10:09:00,
2013-05-05 06:25:00,46.9,46.4,29.65,NE,45,7.3,-999.0,98,-99.99,,,0.98,Acu-Link.com,2013-05-05 10:25:00,
2013-05-05 06:40:00,46.8,46.3,29.65,NW,315,3.7,-999.0,98,-99.99,,,0.98,Acu-Link.com,2013-05-05 10:40:00,
2013-05-05 06:55:00,46.8,46.3,29.66,SW,225,5.3,-999.0,98,-99.99,,,1.01,Acu-Link.com,2013-05-05 10:55:00,
2013-05-05 07:10:00,46.6,46.1,29.67,NW,315,3.7,-999.0,98,-99.99,,,1.07,Acu-Link.com,2013-05-05 11:10:00,
2013-05-05 07:26:00,46.4,45.9,29.69,NW,315,2.7,-999.0,98,-99.99,,,1.16,Acu-Link.com,2013-05-05 11:26:00,
2013-05-05 07:41:00,46.2,45.7,29.69,West,270,3.2,-999.0,98,-99.99,,,1.19,Acu-Link.com,2013-05-05 11:41:00,
2013-05-05 07:56:00,46.0,45.5,29.69,NNE,22,2.7,-999.0,98,-99.99,,,1.23,Acu-Link.com,2013-05-05 11:56:00,
2013-05-05 08:11:00,45.7,45.2,29.69,NW,315,4.7,-999.0,98,-99.99,,,1.31,Acu-Link.com,2013-05-05 12:11:00,
2013-05-05 08:26:00,44.8,44.3,29.68,North,0,4.7,-999.0,98,-99.99,,,1.43,Acu-Link.com,2013-05-05 12:26:00,
2013-05-05 08:42:00,44.8,44.3,29.66,NW,315,4.7,-999.0,98,-99.99,,,1.49,Acu-Link.com,2013-05-05 12:42:00,
2013-05-05 08:57:00,44.6,44.1,29.67,East,90,2.2,-999.0,98,-99.99,,,1.54,Acu-Link.com,2013-05-05 12:57:00,
2013-05-05 09:12:00,44.6,44.1,29.67,WNW,292,2.2,-999.0,98,-99.99,,,1.58,Acu-Link.com,2013-05-05 13:12:00,
2013-05-05 09:27:00,45.1,44.6,29.68,NNE,22,1.1,-999.0,98,-99.99,,,1.62,Acu-Link.com,2013-05-05 13:27:00,
2013-05-05 09:42:00,45.1,44.6,29.68,NNE,22,1.7,-999.0,98,-99.99,,,1.74,Acu-Link.com,2013-05-05 13:42:00,
2013-05-05 09:58:00,45.5,45.0,29.68,NNW,337,1.7,-999.0,98,-99.99,,,1.79,Acu-Link.com,2013-05-05 13:58:00,
2013-05-05 10:13:00,45.5,45.0,29.70,SW,225,2.7,-999.0,98,-99.99,,,1.83,Acu-Link.com,2013-05-05 14:13:00,
2013-05-05 10:28:00,45.5,45.0,29.69,South,180,5.3,-999.0,98,-99.99,,,1.85,Acu-Link.com,2013-05-05 14:28:00,
2013-05-05 10:43:00,45.3,44.8,29.69,SSE,157,2.7,-999.0,98,-99.99,,,2.01,Acu-Link.com,2013-05-05 14:43:00,
2013-05-05 10:58:00,45.5,45.0,29.69,NNW,337,1.7,-999.0,98,-99.99,,,2.06,Acu-Link.com,2013-05-05 14:58:00,
2013-05-05 11:14:00,45.7,45.2,29.69,West,270,3.2,-999.0,98,-99.99,,,2.12,Acu-Link.com,2013-05-05 15:14:00,
2013-05-05 11:29:00,45.5,45.0,29.67,NNE,22,5.3,-999.0,98,-99.99,,,2.17,Acu-Link.com,2013-05-05 15:29:00,
2013-05-05 11:44:00,45.5,45.0,29.68,NE,45,6.3,-999.0,98,-99.99,,,2.24,Acu-Link.com,2013-05-05 15:44:00,
2013-05-05 11:59:00,45.5,45.0,29.67,NE,45,5.8,-999.0,98,-99.99,,,2.28,Acu-Link.com,2013-05-05 15:59:00,
2013-05-05 12:15:00,45.7,45.2,29.68,North,0,3.7,-999.0,98,-99.99,,,2.37,Acu-Link.com,2013-05-05 16:15:00,
2013-05-05 12:30:00,46.0,45.5,29.69,SE,135,4.7,-999.0,98,-99.99,,,2.41,Acu-Link.com,2013-05-05 16:30:00,
2013-05-05 12:45:00,46.2,45.7,29.68,ENE,67,0.0,-999.0,98,-99.99,,,2.48,Acu-Link.com,2013-05-05 16:45:00,
2013-05-05 13:00:00,46.4,45.9,29.69,NE,45,2.2,-999.0,98,-99.99,,,2.52,Acu-Link.com,2013-05-05 17:00:00,
2013-05-05 13:15:00,47.3,46.8,29.66,SSE,157,2.2,-999.0,98,-99.99,,,2.56,Acu-Link.com,2013-05-05 17:15:00,
2013-05-05 13:31:00,47.3,46.8,29.65,West,270,4.7,-999.0,98,-99.99,,,2.57,Acu-Link.com,2013-05-05 17:31:00,
2013-05-05 13:46:00,47.7,47.2,29.64,WNW,292,6.8,-999.0,98,-99.99,,,2.60,Acu-Link.com,2013-05-05 17:46:00,
2013-05-05 14:01:00,47.3,46.8,29.63,North,0,5.3,-999.0,98,-99.99,,,2.65,Acu-Link.com,2013-05-05 18:01:00,
2013-05-05 14:16:00,47.3,46.8,29.65,NW,315,10.9,-999.0,98,-99.99,,,2.68,Acu-Link.com,2013-05-05 18:16:00,
2013-05-05 14:31:00,47.5,47.0,29.64,SSE,157,5.8,-999.0,98,-99.99,,,2.73,Acu-Link.com,2013-05-05 18:31:00,
2013-05-05 14:47:00,48.0,47.5,29.64,SSE,157,4.2,-999.0,98,-99.99,,,2.75,Acu-Link.com,2013-05-05 18:47:00,
2013-05-05 15:02:00,48.7,48.2,29.64,West,270,2.7,-999.0,98,-99.99,,,2.76,Acu-Link.com,2013-05-05 19:02:00,
2013-05-05 15:17:00,48.9,48.4,29.66,North,0,3.7,-999.0,98,-99.99,,,2.78,Acu-Link.com,2013-05-05 19:17:00,
2013-05-05 15:32:00,49.3,48.8,29.65,WNW,292,4.7,-999.0,98,-99.99,,,2.80,Acu-Link.com,2013-05-05 19:32:00,
2013-05-05 15:47:00,49.3,48.8,29.64,NE,45,4.2,-999.0,98,-99.99,,,2.85,Acu-Link.com,2013-05-05 19:47:00,
2013-05-05 16:03:00,49.3,48.8,29.63,ENE,67,5.3,-999.0,98,-99.99,,,2.86,Acu-Link.com,2013-05-05 20:03:00,
2013-05-05 16:18:00,48.9,48.4,29.62,West,270,3.2,-999.0,98,-99.99,,,2.86,Acu-Link.com,2013-05-05 20:18:00,
2013-05-05 16:33:00,49.1,48.6,29.62,West,270,3.7,-999.0,98,-99.99,,,2.86,Acu-Link.com,2013-05-05 20:33:00,
2013-05-05 16:49:00,49.3,48.8,29.62,WSW,247,2.2,-999.0,98,-99.99,,,2.86,Acu-Link.com,2013-05-05 20:49:00,
2013-05-05 17:04:00,49.1,48.6,29.62,NNE,22,5.3,-999.0,98,-99.99,,,2.86,Acu-Link.com,2013-05-05 21:04:00,
2013-05-05 17:19:00,49.1,48.6,29.61,ESE,112,2.7,-999.0,98,-99.99,,,2.87,Acu-Link.com,2013-05-05 21:19:00,
2013-05-05 17:34:00,49.1,48.6,29.61,NE,45,3.7,-999.0,98,-99.99,,,2.87,Acu-Link.com,2013-05-05 21:34:00,
2013-05-05 17:49:00,48.6,48.1,29.60,NW,315,4.2,-999.0,98,-99.99,,,2.89,Acu-Link.com,2013-05-05 21:49:00,
2013-05-05 18:05:00,48.4,47.9,29.59,NNE,22,6.3,-999.0,98,-99.99,,,2.91,Acu-Link.com,2013-05-05 22:05:00,
2013-05-05 18:20:00,48.4,47.9,29.60,WSW,247,4.2,-999.0,98,-99.99,,,2.93,Acu-Link.com,2013-05-05 22:20:00,
2013-05-05 18:35:00,48.2,47.7,29.59,WNW,292,7.8,-999.0,98,-99.99,,,2.97,Acu-Link.com,2013-05-05 22:35:00,
2013-05-05 18:50:00,48.0,47.5,29.60,West,270,2.2,-999.0,98,-99.99,,,3.03,Acu-Link.com,2013-05-05 22:50:00,
2013-05-05 19:05:00,47.8,47.3,29.60,SW,225,1.7,-999.0,98,-99.99,,,3.12,Acu-Link.com,2013-05-05 23:05:00,
2013-05-05 19:20:00,47.8,47.3,29.59,NNE,22,1.7,-999.0,98,-99.99,,,3.19,Acu-Link.com,2013-05-05 23:20:00,
2013-05-05 19:36:00,47.8,47.3,29.61,SW,225,0.0,-999.0,98,-99.99,,,3.23,Acu-Link.com,2013-05-05 23:36:00,
2013-05-05 19:51:00,48.0,47.5,29.61,North,0,2.7,-999.0,98,-99.99,,,3.29,Acu-Link.com,2013-05-05 23:51:00,
2013-05-05 20:06:00,48.2,47.7,29.61,ESE,112,0.0,-999.0,98,-99.99,,,3.33,Acu-Link.com,2013-05-06 00:06:00,
2013-05-05 20:21:00,48.2,47.7,29.61,ENE,67,0.0,-999.0,98,-99.99,,,3.40,Acu-Link.com,2013-05-06 00:21:00,
2013-05-05 20:36:00,48.4,47.9,29.61,NNW,337,2.2,-999.0,98,-99.99,,,3.45,Acu-Link.com,2013-05-06 00:36:00,
2013-05-05 20:52:00,48.7,48.2,29.61,SW,225,0.0,-999.0,98,-99.99,,,3.51,Acu-Link.com,2013-05-06 00:52:00,
2013-05-05 21:07:00,48.7,48.2,29.61,West,270,1.1,-999.0,98,-99.99,,,3.71,Acu-Link.com,2013-05-06 01:07:00,
2013-05-05 21:22:00,48.6,48.1,29.60,ESE,112,1.1,-999.0,98,-99.99,,,3.79,Acu-Link.com,2013-05-06 01:22:00,
2013-05-05 21:37:00,48.6,48.1,29.60,South,180,0.0,-999.0,98,-99.99,,,3.82,Acu-Link.com,2013-05-06 01:37:00,
2013-05-05 21:52:00,48.9,48.4,29.59,NE,45,0.0,-999.0,98,-99.99,,,3.88,Acu-Link.com,2013-05-06 01:52:00,
2013-05-05 22:08:00,48.9,48.4,29.60,SSE,157,2.7,-999.0,98,-99.99,,,4.14,Acu-Link.com,2013-05-06 02:08:00,
2013-05-05 22:23:00,48.7,48.2,29.60,East,90,0.0,-999.0,98,-99.99,,,4.21,Acu-Link.com,2013-05-06 02:23:00,
2013-05-05 22:38:00,49.6,49.1,29.59,NE,45,0.0,-999.0,98,-99.99,,,4.29,Acu-Link.com,2013-05-06 02:38:00,
2013-05-05 22:53:00,50.2,49.7,29.60,NE,45,0.0,-999.0,98,-99.99,,,4.30,Acu-Link.com,2013-05-06 02:53:00,
2013-05-05 23:09:00,50.4,49.9,29.60,ESE,112,1.1,-999.0,98,-99.99,,,4.32,Acu-Link.com,2013-05-06 03:09:00,
2013-05-05 23:24:00,50.5,50.0,29.59,NNE,22,1.7,-999.0,98,-99.99,,,4.32,Acu-Link.com,2013-05-06 03:24:00,
2013-05-05 23:39:00,50.5,50.0,29.60,NNE,22,1.7,-999.0,98,-99.99,,,4.34,Acu-Link.com,2013-05-06 03:39:00,
2013-05-05 23:54:00,51.3,50.8,29.60,North,0,1.7,-999.0,98,-99.99,,,4.34,Acu-Link.com,2013-05-06 03:54:00,